Time;durP1;ratioP1;P1;durP2;ratioP2;P2;SDS_P1;SDS_P2;PMS_P1;PMS_P2;Temp;Humidity;BMP_temperature;BMP_pressure;BME280_temperature;BME280_humidity;BME280_pressure;Samples;Min_cycle;Max_cycle;Signal;HPM_P1;HPM_P2
2022/02/09 00:02:22;;;;;;;22.25;9.80;;;;;;;0.58;78.60;98214.97;5031574;28;20493;-82
2022/02/09 00:08:10;;;;;;;23.27;10.57;;;;;;;0.55;79.60;98195.66;5031465;28;20147;-83
2022/02/09 00:10:17;;;;;;;25.67;10.48;;;;;;;0.57;79.77;98211.44;5030661;28;20041;-82
2022/02/09 00:12:50;;;;;;;22.65;11.23;;;;;;;0.51;79.50;98199.25;5014969;28;20457;-84
2022/02/09 00:15:30;;;;;;;15.57;8.10;;;;;;;0.37;79.66;98187.16;5031436;28;20418;-82
2022/02/09 00:39:35;;;;;;;12.27;4.50;;;;;;;0.05;85.12;98205.00;5030138;28;20033;-82
2022/02/09 01:11:26;;;;;;;23.23;9.88;;;;;;;0.28;86.26;98217.03;5030582;28;20036;-83
2022/02/09 01:38:07;;;;;;;19.77;8.30;;;;;;;0.41;83.49;98208.13;5023980;28;20044;-83
2022/02/09 01:57:39;;;;;;;54.90;22.23;;;;;;;0.91;80.85;98207.50;5031959;28;20087;-82
2022/02/09 02:00:07;;;;;;;51.03;20.80;;;;;;;0.97;81.11;98209.19;5033253;28;20021;-83
2022/02/09 02:02:32;;;;;;;43.80;18.35;;;;;;;1.02;80.71;98196.81;5017240;28;20536;-82
2022/02/09 02:04:58;;;;;;;26.23;13.60;;;;;;;0.97;80.65;98196.88;5016885;28;20043;-82
2022/02/09 02:07:41;;;;;;;22.67;9.70;;;;;;;0.99;80.19;98194.22;5016133;28;20109;-82
2022/02/09 02:10:11;;;;;;;22.45;10.90;;;;;;;1.00;80.32;98206.50;5018791;28;20099;-82
2022/02/09 02:13:01;;;;;;;28.90;11.43;;;;;;;0.99;82.40;98210.03;5017000;28;20045;-82
2022/02/09 02:18:07;;;;;;;48.03;21.33;;;;;;;0.78;82.17;98212.94;5032774;28;20413;-82
2022/02/09 02:21:03;;;;;;;33.38;15.90;;;;;;;0.78;83.32;98220.84;5016553;28;20032;-82
2022/02/09 02:47:43;;;;;;;37.30;14.32;;;;;;;1.29;81.58;98220.16;5032335;28;20037;-84
2022/02/09 02:58:55;;;;;;;38.08;14.70;;;;;;;1.56;79.82;98234.66;5023225;28;20091;-84
2022/02/09 03:17:19;;;;;;;60.15;24.83;;;;;;;1.17;82.21;98224.72;5032119;28;20031;-82
2022/02/09 03:22:20;;;;;;;51.95;18.90;;;;;;;1.30;82.88;98237.69;5031877;28;20035;-83
2022/02/09 03:46:24;;;;;;;58.95;23.50;;;;;;;1.55;82.61;98227.66;5031627;28;20044;-82
2022/02/09 03:56:42;;;;;;;53.00;21.30;;;;;;;1.64;83.08;98241.56;5031452;28;20112;-82
2022/02/09 03:59:08;;;;;;;52.10;19.58;;;;;;;1.67;82.91;98234.47;5031191;28;20122;-81
2022/02/09 04:02:11;;;;;;;40.22;18.20;;;;;;;1.76;82.34;98229.06;5014632;28;20067;-81
2022/02/09 04:04:37;;;;;;;37.85;16.83;;;;;;;1.76;81.45;98213.25;5005644;28;20493;-81
2022/02/09 04:07:03;;;;;;;42.08;16.95;;;;;;;1.71;80.48;98196.63;5014727;28;20036;-82
2022/02/09 04:09:31;;;;;;;48.60;19.52;;;;;;;1.75;80.59;98208.88;5015106;28;20045;-82
2022/02/09 04:15:02;;;;;;;54.78;23.17;;;;;;;1.83;81.16;98204.34;5031084;28;20053;-82
2022/02/09 04:36:11;;;;;;;38.05;15.52;;;;;;;1.97;80.98;98194.44;5031629;28;20110;-81
2022/02/09 04:38:49;;;;;;;44.55;17.88;;;;;;;2.00;79.56;98195.22;5017853;28;20049;-82
2022/02/09 04:54:39;;;;;;;30.83;12.80;;;;;;;1.80;83.94;98213.19;5031030;28;20087;-84
2022/02/09 04:57:12;;;;;;;38.47;15.90;;;;;;;1.75;83.39;98216.78;5044283;28;20047;-81
2022/02/09 04:59:48;;;;;;;40.47;18.77;;;;;;;1.79;83.55;98207.91;5015477;28;20036;-82
2022/02/09 05:24:34;;;;;;;85.95;38.60;;;;;;;2.14;82.61;98258.31;5030646;28;20033;-82
2022/02/09 05:27:15;;;;;;;89.18;37.42;;;;;;;2.13;82.27;98257.44;5015939;28;20095;-82
2022/02/09 05:29:40;;;;;;;114.10;42.92;;;;;;;2.11;82.64;98245.19;5015235;28;20037;-82
2022/02/09 05:32:06;;;;;;;107.78;42.45;;;;;;;2.22;82.34;98261.69;5014385;28;20029;-82
2022/02/09 05:34:32;;;;;;;107.72;44.58;;;;;;;2.28;82.27;98261.56;5017564;28;20068;-82
2022/02/09 05:37:00;;;;;;;87.03;37.05;;;;;;;2.25;81.71;98261.63;5017613;28;20025;-81
2022/02/09 05:39:26;;;;;;;102.57;39.05;;;;;;;2.14;82.32;98246.00;5018486;28;20025;-81
2022/02/09 05:41:52;;;;;;;67.93;29.38;;;;;;;2.32;81.10;98265.03;5020858;28;20037;-82
2022/02/09 05:44:17;;;;;;;78.07;30.52;;;;;;;2.33;80.58;98261.50;5012612;28;20025;-83
2022/02/09 05:47:12;;;;;;;43.58;21.80;;;;;;;2.37;79.72;98285.16;5017386;28;20033;-81
2022/02/09 05:49:38;;;;;;;46.92;20.60;;;;;;;2.29;80.64;98279.16;5033789;28;20025;-80
2022/02/09 05:52:32;;;;;;;52.00;23.50;;;;;;;2.38;80.55;98281.63;5015768;28;20494;-80
2022/02/09 05:59:48;;;;;;;47.78;20.25;;;;;;;2.28;81.08;98273.94;5032637;28;20615;-83
2022/02/09 06:02:16;;;;;;;43.13;19.70;;;;;;;2.38;80.82;98291.31;5017065;28;20102;-81
2022/02/09 06:04:42;;;;;;;55.47;24.10;;;;;;;2.35;81.12;98301.94;5016974;28;20025;-80
2022/02/09 06:07:07;;;;;;;46.90;21.15;;;;;;;2.23;81.85;98289.81;5016295;28;20025;-73
2022/02/09 06:09:35;;;;;;;49.97;21.63;;;;;;;2.25;81.67;98295.94;5033028;28;20079;-81
2022/02/09 06:12:30;;;;;;;47.15;19.77;;;;;;;2.28;82.13;98295.88;5014891;28;20442;-80
2022/02/09 06:20:28;;;;;;;63.03;29.60;;;;;;;2.42;80.76;98293.91;5007347;28;20063;-81
2022/02/09 06:22:54;;;;;;;61.72;27.70;;;;;;;2.50;80.55;98301.66;5016369;28;20108;-83
2022/02/09 06:25:23;;;;;;;49.90;23.13;;;;;;;2.53;80.11;98301.59;5016674;28;20041;-82
2022/02/09 06:27:50;;;;;;;98.50;39.92;;;;;;;2.15;79.89;98233.69;5016346;28;20047;-81
2022/02/09 06:30:16;;;;;;;87.88;38.60;;;;;;;2.44;81.00;98289.44;5016103;28;20542;-81
2022/02/09 06:32:42;;;;;;;89.93;35.55;;;;;;;2.47;82.83;98286.75;5016397;28;20120;-81
2022/02/09 06:35:08;;;;;;;129.23;57.47;;;;;;;2.54;82.50;98296.31;5016694;28;20125;-82
2022/02/09 06:37:45;;;;;;;145.55;69.13;;;;;;;2.69;81.62;98303.06;5018629;28;20033;-81
2022/02/09 06:40:14;;;;;;;114.60;53.15;;;;;;;2.77;81.66;98310.88;5032717;28;20060;-81
2022/02/09 06:42:40;;;;;;;102.28;50.17;;;;;;;2.81;79.86;98297.56;5016162;28;20147;-80
2022/02/09 06:45:13;;;;;;;82.75;38.00;;;;;;;3.01;78.70;98313.91;5012848;28;20033;-81
2022/02/09 06:47:40;;;;;;;96.50;41.90;;;;;;;3.04;78.78;98303.28;5042562;28;20030;-82
2022/02/09 06:50:10;;;;;;;102.55;44.05;;;;;;;3.01;78.87;98291.91;5015953;28;20076;-82
2022/02/09 06:52:43;;;;;;;167.68;72.07;;;;;;;3.18;78.91;98302.97;5016973;28;20071;-82
2022/02/09 06:55:16;;;;;;;;;;;;;;;3.45;77.89;98305.03;5017587;28;20041;-82
2022/02/09 07:00:16;;;;;;;94.75;45.72;;;;;;;3.62;77.29;98299.38;5032524;28;20052;-81
2022/02/09 07:02:43;;;;;;;113.15;51.60;;;;;;;3.83;76.80;98298.91;5015439;28;20575;-82
2022/02/09 07:05:12;;;;;;;104.03;53.15;;;;;;;3.96;76.18;98302.13;5015890;28;20120;-82
2022/02/09 07:07:38;;;;;;;132.38;65.47;;;;;;;4.06;76.92;98303.66;5016434;28;20045;-82
2022/02/09 07:10:09;;;;;;;115.10;52.20;;;;;;;4.17;76.36;98310.44;5016299;28;20069;-83
2022/02/09 07:12:35;;;;;;;101.53;46.80;;;;;;;4.26;75.82;98304.03;5016004;28;20116;-83
2022/02/09 07:15:01;;;;;;;106.15;54.10;;;;;;;4.46;75.62;98307.03;5015453;28;20554;-80
2022/02/09 07:17:27;;;;;;;110.53;51.22;;;;;;;4.52;75.54;98306.91;5032264;28;20057;-81
2022/02/09 07:20:09;;;;;;;157.98;71.57;;;;;;;4.54;75.63;98301.56;5015894;28;20029;-81
2022/02/09 07:22:37;;;;;;;;;;;;;;;4.76;74.46;98306.25;5019609;28;20041;-81
2022/02/09 07:25:09;;;;;;;166.23;72.75;;;;;;;4.83;74.27;98313.09;5049672;28;19913;-82
2022/02/09 07:27:53;;;;;;;162.15;77.25;;;;;;;4.72;74.28;98303.72;5032369;28;20060;-82
2022/02/09 07:30:24;;;;;;;191.93;74.65;;;;;;;4.79;74.22;98286.75;5015413;28;20501;-82
2022/02/09 07:32:51;;;;;;;152.25;72.15;;;;;;;5.02;73.03;98302.00;5015315;28;20025;-81
2022/02/09 07:35:17;;;;;;;152.75;70.55;;;;;;;5.29;71.81;98286.19;5014822;28;20037;-82
2022/02/09 07:37:43;;;;;;;153.48;68.93;;;;;;;5.26;71.70;98315.44;5032900;28;20040;-81
2022/02/09 07:40:13;;;;;;;103.53;50.17;;;;;;;5.39;71.19;98308.00;5015719;28;20022;-82
2022/02/09 07:42:47;;;;;;;123.32;52.47;;;;;;;5.44;71.20;98327.31;5016434;28;20025;-82
2022/02/09 07:54:12;;;;;;;43.22;21.67;;;;;;;5.50;69.55;98305.06;5043288;28;20048;-81
2022/02/09 07:56:42;;;;;;;44.72;19.38;;;;;;;5.66;68.28;98280.63;5026999;28;20107;-82
2022/02/09 08:05:24;;;;;;;35.72;16.52;;;;;;;5.19;67.61;98268.81;4972114;28;20430;-82
2022/02/09 08:07:53;;;;;;;38.75;19.42;;;;;;;5.48;68.54;98323.66;4955729;28;20026;-81
2022/02/09 08:10:39;;;;;;;41.72;20.25;;;;;;;5.74;67.51;98307.84;4956375;28;20031;-81
2022/02/09 08:34:13;;;;;;;57.63;26.40;;;;;;;6.32;64.41;98319.28;5032162;28;20025;-81
2022/02/09 08:36:39;;;;;;;55.65;25.88;;;;;;;6.63;64.25;98325.34;5035198;28;20476;-81
2022/02/09 08:39:06;;;;;;;46.40;20.00;;;;;;;6.59;64.56;98334.31;5019219;28;20024;-81
2022/02/09 08:41:33;;;;;;;53.53;23.40;;;;;;;7.04;63.27;98338.06;5017985;28;20404;-82
2022/02/09 08:43:58;;;;;;;65.07;25.17;;;;;;;7.37;61.90;98320.03;5016899;28;20021;-81
2022/02/09 08:46:24;;;;;;;58.85;22.17;;;;;;;7.82;60.53;98301.44;5018580;28;20120;-81
2022/02/09 08:48:50;;;;;;;53.45;21.98;;;;;;;8.90;57.33;98305.00;5017803;28;20032;-82
2022/02/09 08:51:24;;;;;;;55.05;22.02;;;;;;;9.88;54.75;98292.50;5032315;28;20052;-82
2022/02/09 08:53:50;;;;;;;52.92;22.92;;;;;;;10.58;51.97;98283.75;5012222;28;20101;-82
2022/02/09 08:56:16;;;;;;;69.78;23.48;;;;;;;10.53;52.24;98297.34;4996631;28;20041;-82
2022/02/09 08:58:43;;;;;;;51.58;22.05;;;;;;;12.14;48.76;98262.84;4992801;28;20653;-83
2022/02/09 09:01:16;;;;;;;56.83;23.60;;;;;;;13.37;45.35;98267.13;5015479;28;20034;-84
2022/02/09 09:03:51;;;;;;;59.53;25.15;;;;;;;13.28;45.40;98275.75;5009652;28;20570;-83
2022/02/09 09:06:22;;;;;;;53.92;24.55;;;;;;;13.12;44.77;98266.88;4979607;28;20037;-83
2022/02/09 10:02:58;;;;;;;12.20;6.85;;;;;;;13.32;43.76;98253.09;5054108;28;20036;-82
2022/02/09 10:34:20;;;;;;;12.88;5.95;;;;;;;19.53;32.96;98214.56;5039302;28;20041;-84
2022/02/09 10:36:51;;;;;;;17.67;9.05;;;;;;;18.32;34.39;98200.53;5038117;28;20445;-83
2022/02/09 10:39:46;;;;;;;15.03;8.33;;;;;;;17.12;36.50;98220.16;5048652;28;20057;-82
2022/02/09 10:42:22;;;;;;;15.75;8.50;;;;;;;16.25;38.57;98225.88;5022360;28;20271;-83
2022/02/09 10:44:55;;;;;;;11.32;6.63;;;;;;;15.62;40.08;98240.41;5021432;28;20122;-82
2022/02/09 10:47:26;;;;;;;27.88;15.43;;;;;;;13.69;43.75;98234.69;5001066;28;20061;-82
2022/02/09 10:50:08;;;;;;;13.10;8.32;;;;;;;13.74;44.06;98236.13;5040161;28;20024;-84
2022/02/09 10:52:42;;;;;;;13.23;6.65;;;;;;;13.85;43.97;98249.72;5052583;28;20525;-84
2022/02/09 10:55:31;;;;;;;12.50;6.82;;;;;;;12.95;46.11;98253.59;5068945;28;20075;-84
2022/02/09 10:57:57;;;;;;;19.27;9.02;;;;;;;12.71;47.29;98261.25;5052363;28;20041;-85
2022/02/09 11:00:24;;;;;;;16.23;9.07;;;;;;;13.02;47.09;98262.97;5023672;28;20491;-86
2022/02/09 11:02:50;;;;;;;10.55;6.10;;;;;;;13.08;46.33;98257.28;5020542;28;20024;-86
2022/02/09 11:05:20;;;;;;;11.60;5.53;;;;;;;12.79;46.84;98250.09;5019651;28;20119;-85
2022/02/09 11:07:47;;;;;;;14.50;7.60;;;;;;;12.47;47.53;98250.16;5020580;28;20444;-84
2022/02/09 11:10:13;;;;;;;9.52;3.80;;;;;;;12.65;47.78;98253.56;5052709;28;20083;-85
2022/02/09 11:12:41;;;;;;;15.00;6.70;;;;;;;12.68;48.44;98268.63;5033155;28;20481;-85
2022/02/09 11:15:09;;;;;;;14.90;5.10;;;;;;;12.91;47.89;98241.28;5011515;28;20040;-85
2022/02/09 11:17:36;;;;;;;7.22;4.80;;;;;;;13.12;47.33;98231.97;5036748;28;20021;-85
2022/02/09 11:20:02;;;;;;;10.38;5.75;;;;;;;13.20;47.53;98251.16;5019710;28;20033;-86
2022/02/09 11:22:39;;;;;;;16.08;6.90;;;;;;;13.38;47.17;98233.91;5010721;28;20403;-84
2022/02/09 11:25:21;;;;;;;17.38;7.25;;;;;;;13.57;46.86;98250.59;5018472;28;20462;-85
2022/02/09 11:27:55;;;;;;;14.38;7.57;;;;;;;13.52;47.04;98231.22;5052580;28;20036;-86
2022/02/09 11:33:36;;;;;;;71.43;30.52;;;;;;;13.74;46.16;98230.72;5051756;28;20025;-85
2022/02/09 11:36:17;;;;;;;13.93;5.80;;;;;;;13.76;45.59;98246.75;5024932;28;20044;-84
2022/02/09 11:38:46;;;;;;;15.52;6.28;;;;;;;13.45;46.32;98237.06;5035092;28;20029;-84
2022/02/09 11:41:16;;;;;;;7.30;4.65;;;;;;;13.31;46.64;98243.31;5035057;28;20031;-85
2022/02/09 11:43:47;;;;;;;7.93;4.55;;;;;;;13.22;47.38;98243.88;5018832;28;20104;-84
2022/02/09 11:46:40;;;;;;;3.75;2.15;;;;;;;13.35;46.60;98227.88;5018754;28;20029;-85
2022/02/09 12:08:53;;;;;;;5.63;2.88;;;;;;;12.87;48.06;98226.31;5045712;28;20043;-84
2022/02/09 12:11:35;;;;;;;2.67;1.52;;;;;;;12.77;48.25;98233.19;5021384;28;20109;-83
2022/02/09 12:14:14;;;;;;;19.65;3.42;;;;;;;12.70;48.36;98242.59;5034439;28;20033;-84
2022/02/09 12:19:35;;;;;;;21.08;7.68;;;;;;;12.75;48.66;98243.16;5029233;28;20044;-84
2022/02/09 12:24:34;;;;;;;14.18;6.32;;;;;;;12.50;49.32;98252.66;5031055;28;20405;-85
2022/02/09 12:27:12;;;;;;;30.38;11.00;;;;;;;12.20;50.30;98238.34;5017441;28;20032;-85
2022/02/09 12:29:46;;;;;;;22.20;12.50;;;;;;;12.02;51.30;98241.22;5036628;28;20060;-85
2022/02/09 12:32:15;;;;;;;7.25;4.63;;;;;;;11.91;50.85;98256.06;5018139;28;20397;-83
2022/02/09 12:34:44;;;;;;;7.20;3.92;;;;;;;11.48;50.67;98240.59;5033754;28;20029;-85
2022/02/09 12:37:14;;;;;;;11.63;4.70;;;;;;;11.87;50.33;98248.31;5013310;28;20067;-85
2022/02/09 12:39:54;;;;;;;12.43;6.72;;;;;;;12.09;50.42;98243.44;5017272;28;20036;-85
2022/02/09 12:42:21;;;;;;;18.40;7.53;;;;;;;12.68;49.77;98233.72;5011847;28;20028;-85
2022/02/09 12:45:11;;;;;;;24.63;9.35;;;;;;;13.05;48.13;98225.19;5067050;28;20098;-84
2022/02/09 12:47:38;;;;;;;16.92;7.05;;;;;;;12.89;48.27;98219.88;5032630;28;20021;-86
2022/02/09 12:50:07;;;;;;;28.60;6.78;;;;;;;13.09;48.30;98231.28;5051717;28;20021;-86
2022/02/09 12:52:36;;;;;;;21.13;6.35;;;;;;;13.35;47.90;98234.09;5033297;28;20072;-84
2022/02/09 12:55:06;;;;;;;11.45;6.43;;;;;;;13.40;47.77;98225.75;5017049;28;20098;-85
2022/02/09 12:57:37;;;;;;;8.82;5.53;;;;;;;13.54;47.12;98210.47;5033386;28;20033;-84
2022/02/09 13:00:07;;;;;;;11.15;6.10;;;;;;;14.02;46.22;98224.44;5017056;28;20481;-82
2022/02/09 13:02:45;;;;;;;19.25;8.05;;;;;;;13.97;45.90;98205.03;5033530;28;20036;-84
2022/02/09 13:05:11;;;;;;;27.17;10.88;;;;;;;13.96;46.23;98217.66;5033367;28;20091;-83
2022/02/09 13:07:37;;;;;;;22.63;9.30;;;;;;;14.05;46.29;98218.88;5016676;28;20029;-84
2022/02/09 13:10:03;;;;;;;20.38;9.15;;;;;;;14.01;46.11;98222.72;5017289;28;20032;-84
2022/02/09 13:12:30;;;;;;;22.27;11.65;;;;;;;13.68;47.46;98231.13;5016415;28;20136;-85
2022/02/09 13:15:21;;;;;;;17.50;9.23;;;;;;;13.77;46.82;98221.59;5012750;28;20088;-85
2022/02/09 13:51:50;;;;;;;17.25;6.85;;;;;;;12.80;47.35;98222.25;5035368;28;20037;-85
2022/02/09 14:03:46;;;;;;;8.88;2.22;;;;;;;11.64;52.64;98262.06;5040395;28;20039;-85
2022/02/09 14:47:26;;;;;;;18.27;8.63;;;;;;;10.91;58.18;98300.78;5035948;28;20029;-84
2022/02/09 14:57:44;;;;;;;25.27;10.73;;;;;;;10.49;59.09;98289.56;5022717;28;20043;-84
2022/02/09 15:00:18;;;;;;;31.30;13.32;;;;;;;10.55;59.39;98291.94;5051622;28;20420;-84
2022/02/09 15:05:41;;;;;;;41.70;21.98;;;;;;;10.46;60.64;98300.44;5049299;28;20108;-84
2022/02/09 15:11:06;;;;;;;42.92;20.80;;;;;;;10.53;61.32;98309.84;5058377;28;20450;-84
2022/02/09 15:16:00;;;;;;;21.05;12.32;;;;;;;10.42;61.80;98301.50;5055408;28;20047;-84
2022/02/09 15:23:28;;;;;;;28.08;14.05;;;;;;;10.45;61.85;98317.41;5072019;28;20380;-74
2022/02/09 15:25:58;;;;;;;33.92;15.25;;;;;;;10.46;61.05;98319.16;5037735;28;20247;-73
2022/02/09 15:28:24;;;;;;;28.20;15.60;;;;;;;10.41;60.86;98318.50;5053151;28;20059;-72
2022/02/09 15:31:03;;;;;;;29.40;16.02;;;;;;;10.32;61.40;98314.47;5071861;28;20016;-72
2022/02/09 15:33:36;;;;;;;27.42;14.73;;;;;;;10.32;61.38;98323.34;5070299;28;20032;-72
2022/02/09 15:36:02;;;;;;;24.10;13.93;;;;;;;10.17;61.71;98325.91;5054583;28;20412;-73
2022/02/09 15:38:38;;;;;;;24.42;12.82;;;;;;;10.19;61.76;98321.34;5071178;28;20127;-73
2022/02/09 15:41:15;;;;;;;23.17;9.02;;;;;;;10.08;62.12;98324.50;5071035;28;20064;-72
2022/02/09 16:05:41;;;;;;;32.50;14.02;;;;;;;9.14;65.25;98363.53;5053399;28;20097;-73
2022/02/09 16:10:49;;;;;;;30.10;11.98;;;;;;;9.23;65.06;98376.47;5054128;28;20063;-73
2022/02/09 16:22:00;;;;;;;31.20;15.95;;;;;;;9.24;64.88;98391.56;5031235;28;20539;-72
2022/02/09 16:24:43;;;;;;;42.83;17.03;;;;;;;9.14;65.67;98390.22;5071489;28;20027;-72
2022/02/09 16:46:29;;;;;;;30.02;18.10;;;;;;;8.79;65.84;98417.50;5056543;28;20403;-80
2022/02/09 16:52:15;;;;;;;39.97;17.42;;;;;;;8.65;66.91;98422.53;5025124;28;20044;-84
2022/02/09 17:19:26;;;;;;;59.88;30.25;;;;;;;7.69;71.13;98441.28;4969671;28;20129;-73
2022/02/09 17:21:51;;;;;;;93.32;48.70;;;;;;;7.63;71.20;98433.50;4966438;28;20040;-75
2022/02/09 17:24:25;;;;;;;59.17;34.55;;;;;;;7.71;71.01;98455.44;4940214;29;20105;-86
2022/02/09 17:26:56;;;;;;;54.17;28.20;;;;;;;7.49;71.23;98425.16;4972991;28;20038;-87
2022/02/09 17:29:28;;;;;;;29.50;14.95;;;;;;;7.46;71.58;98441.25;5002969;28;20056;-86
2022/02/09 17:32:04;;;;;;;;;;;;;;;7.62;71.40;98453.09;5028820;28;20127;-86
2022/02/09 17:55:07;;;;;;;80.47;41.97;;;;;;;6.59;79.02;98469.00;5064270;28;20116;-88
2022/02/09 17:57:47;;;;;;;74.32;37.00;;;;;;;6.57;78.88;98477.03;5050424;28;20028;-89
2022/02/09 18:00:31;;;;;;;61.33;29.52;;;;;;;6.32;79.56;98466.28;5061647;28;20020;-88
2022/02/09 18:02:56;;;;;;;36.92;21.15;;;;;;;6.33;79.18;98477.78;5067984;28;20036;-88
2022/02/09 18:05:31;;;;;;;51.90;27.60;;;;;;;6.32;78.74;98473.38;5042726;28;20462;-87
2022/02/09 18:08:36;;;;;;;58.90;30.15;;;;;;;6.41;79.01;98502.34;5049199;28;20050;-86
2022/02/09 18:31:36;;;;;;;140.20;69.75;;;;;;;5.41;85.72;98471.50;5069762;28;20381;-87
2022/02/09 18:45:48;;;;;;;32.72;18.58;;;;;;;5.03;87.58;98510.53;5013838;28;20035;-86
2022/02/09 19:05:50;;;;;;;43.40;21.55;;;;;;;4.41;91.39;98515.53;4992993;28;20037;-87
2022/02/09 19:26:12;;;;;;;84.00;43.35;;;;;;;4.17;94.97;98516.06;5052777;28;20112;-85
2022/02/09 19:48:11;;;;;;;70.00;34.53;;;;;;;3.63;97.35;98481.84;5075387;28;20043;-87
2022/02/09 19:50:54;;;;;;;89.20;43.83;;;;;;;3.97;97.26;98550.84;5054141;28;20036;-86
2022/02/09 19:53:38;;;;;;;164.50;85.68;;;;;;;3.82;97.92;98548.50;5041820;28;20036;-87
2022/02/09 19:56:10;;;;;;;138.93;70.55;;;;;;;3.87;99.95;98575.78;5058582;28;20028;-87
2022/02/09 19:58:43;;;;;;;159.95;77.25;;;;;;;3.65;100.00;98554.13;5037165;28;20501;-87
2022/02/09 20:01:13;;;;;;;192.95;96.88;;;;;;;3.75;100.00;98587.44;5040756;28;20401;-87
2022/02/09 20:03:39;;;;;;;193.80;98.93;;;;;;;3.65;100.00;98567.38;5071954;28;20036;-87
2022/02/09 20:06:07;;;;;;;179.05;85.03;;;;;;;3.70;100.00;98585.78;5055233;28;20179;-86
2022/02/09 20:08:36;;;;;;;183.80;86.65;;;;;;;3.49;100.00;98560.59;5038560;28;20044;-84
2022/02/09 20:11:02;;;;;;;192.27;94.05;;;;;;;3.41;100.00;98566.94;5039422;28;20036;-88
2022/02/09 20:13:28;;;;;;;177.00;89.78;;;;;;;3.32;100.00;98561.78;5056850;28;20047;-86
2022/02/09 20:15:54;;;;;;;184.90;83.00;;;;;;;3.23;100.00;98573.41;5038414;28;20036;-87
2022/02/09 20:18:19;;;;;;;149.82;68.05;;;;;;;3.13;100.00;98567.38;5055995;28;20407;-86
2022/02/09 20:20:45;;;;;;;145.88;70.95;;;;;;;3.17;100.00;98589.34;5038809;28;20523;-86
2022/02/09 20:23:12;;;;;;;127.20;62.03;;;;;;;3.19;100.00;98595.50;5038895;28;20029;-87
2022/02/09 20:29:05;;;;;;;123.90;59.08;;;;;;;2.94;100.00;98572.97;5070450;28;20106;-84
2022/02/09 20:32:14;;;;;;;144.23;61.75;;;;;;;3.07;100.00;98601.84;5039732;28;20105;-86
2022/02/09 20:34:52;;;;;;;123.78;54.10;;;;;;;2.74;100.00;98573.25;5032176;28;20095;-84
2022/02/09 20:37:19;;;;;;;155.57;68.43;;;;;;;2.65;100.00;98557.53;5056506;28;20033;-85
2022/02/09 20:39:56;;;;;;;147.65;67.13;;;;;;;2.78;100.00;98587.31;5038670;28;20032;-87
2022/02/09 20:42:22;;;;;;;138.65;63.00;;;;;;;2.73;100.00;98601.47;5039481;28;20445;-86
2022/02/09 20:45:04;;;;;;;167.68;73.88;;;;;;;2.68;100.00;98597.13;5018649;28;20040;-86
2022/02/09 20:47:32;;;;;;;168.67;74.60;;;;;;;2.53;100.00;98579.72;5069062;28;20071;-86
2022/02/09 20:49:58;;;;;;;117.20;53.67;;;;;;;2.49;100.00;98595.66;5054805;28;20271;-87
2022/02/09 20:52:23;;;;;;;101.63;43.95;;;;;;;2.38;100.00;98589.59;5039691;28;20523;-86
2022/02/09 20:54:49;;;;;;;75.32;36.92;;;;;;;2.35;100.00;98593.16;5058277;28;20095;-86
2022/02/09 20:57:15;;;;;;;75.72;36.60;;;;;;;2.49;100.00;98614.13;5039846;28;20028;-87
2022/02/09 20:59:47;;;;;;;83.55;41.25;;;;;;;2.46;100.00;98608.88;5039699;28;20111;-75
2022/02/09 21:02:31;;;;;;;104.13;48.45;;;;;;;2.38;100.00;98584.34;5056022;28;20492;-85
2022/02/09 21:05:09;;;;;;;148.75;59.17;;;;;;;2.16;100.00;98579.31;5059999;28;20124;-86
2022/02/09 21:07:47;;;;;;;90.00;38.63;;;;;;;2.14;100.00;98590.78;5040588;28;20024;-86
2022/02/09 21:10:31;;;;;;;55.67;28.13;;;;;;;2.25;100.00;98625.84;5040835;28;20051;-85
2022/02/09 21:13:01;;;;;;;43.60;21.80;;;;;;;1.92;100.00;98565.53;5042173;28;20463;-85
2022/02/09 21:21:20;;;;;;;154.43;54.15;;;;;;;1.95;100.00;98605.97;5008138;28;20452;-86
2022/02/09 22:48:34;;;;;;;132.70;60.70;;;;;;;0.98;100.00;98645.50;5026761;28;20051;-85
2022/02/09 22:56:29;;;;;;;129.50;57.85;;;;;;;0.67;100.00;98589.50;5020885;28;20032;-85
2022/02/09 22:58:59;;;;;;;96.55;46.05;;;;;;;0.85;100.00;98615.72;5001611;28;20025;-86
2022/02/09 23:02:02;;;;;;;90.43;43.40;;;;;;;0.61;100.00;98596.56;5002145;28;20033;-84
2022/02/09 23:07:19;;;;;;;63.72;31.55;;;;;;;0.63;100.00;98597.41;5029551;28;20037;-85
2022/02/09 23:12:24;;;;;;;83.63;36.67;;;;;;;0.60;100.00;98615.88;5018257;28;20079;-85
2022/02/09 23:15:08;;;;;;;81.93;37.15;;;;;;;0.50;100.00;98596.63;5002776;28;20043;-84
2022/02/09 23:55:38;;;;;;;123.40;53.80;;;;;;;0.11;100.00;98563.50;5033925;28;20036;-85
